Disclaimer

Please do not use the information listed here in-flight or in-navigation, as they are not provided to us by the airports but are provided by volunteers, so they might be outdated.

Search


Regions


Airport information page

Radio informations:
Tower (TWR) - 120.8 MHz
Automatic Terminal Information Service (ATIS) - 118.05 MHz
OSTRAVA APP - 125.1 MHz

Airport informations:
Latitude: 49° 41' 46.65" N
Longitude: 018° 06' 39.79" E
Elevation: 844 feet - 257 meters
Operating hours: Remarks
Operating agency: Civil government, landing fees and diplomatic clearance may be required
Timezone: UTC+1(+2DT)
Fuel: 100/130 octane gasoline, leaded, MIL-L-5572F (GREEN)

Jet fuel avaiable but type is unknown.

100/130 MIL Spec, low lead, aviation gasoline (BLUE)

Runway information:
04/22 - 11484 x 207 feet< - >3500 x 63 meters

Recent METARs:
LKMT 160830Z 20002KT 5000 BR OVC028 M02/M04 Q1018 R04/520295 NOSIG
LKMT 160900Z VRB02KT 5000 BR OVC027 M02/M04 Q1018 R04/520295 NOSIG
LKMT 160930Z 19003KT 5000 BR BKN024 OVC027 M02/M04 Q1018 R04/520295 NOSIG

Airport on the map: